createdAt,value
2018-04-16T00:02:01.681Z,68.10
2018-04-16T00:04:30.290Z,68.20
2018-04-16T00:06:58.891Z,68.20
2018-04-16T00:09:27.587Z,68.10
2018-04-16T00:11:56.282Z,68.20
2018-04-16T00:14:24.876Z,68.20
2018-04-16T00:16:52.739Z,68.20
2018-04-16T00:19:21.426Z,68.30
2018-04-16T00:21:50.043Z,68.30
2018-04-16T00:24:17.834Z,68.20
2018-04-16T00:26:45.723Z,68.30
2018-04-16T00:29:13.631Z,68.30
2018-04-16T00:31:47.687Z,68.30
2018-04-16T00:34:21.591Z,68.20
2018-04-16T00:36:55.138Z,67.80
2018-04-16T00:39:29.576Z,68.40
2018-04-16T00:42:04.399Z,68.40
2018-04-16T00:44:38.618Z,68.40
2018-04-16T00:47:12.514Z,68.30
2018-04-16T00:49:46.598Z,68.40
2018-04-16T00:52:19.785Z,68.20
2018-04-16T00:54:53.467Z,68.20
2018-04-16T00:57:27.012Z,68.20
2018-04-16T01:00:00.106Z,68.30
2018-04-16T01:02:33.478Z,68.30
2018-04-16T01:05:06.604Z,68.20
2018-04-16T01:07:40.879Z,68.30
2018-04-16T01:10:14.922Z,68.20
2018-04-16T01:12:48.519Z,68.20
2018-04-16T01:15:23.086Z,68.20
2018-04-16T01:17:56.959Z,68.30
2018-04-16T01:20:30.438Z,68.30
2018-04-16T01:23:03.885Z,68.20
2018-04-16T01:25:37.287Z,68.30
2018-04-16T01:28:11.544Z,68.40
2018-04-16T01:30:45.109Z,68.40
2018-04-16T01:33:18.402Z,68.30
2018-04-16T01:35:51.710Z,68.20
2018-04-16T01:38:25.297Z,68.20
2018-04-16T01:40:59.662Z,68.20
2018-04-16T01:43:33.246Z,68.10
2018-04-16T01:46:07.018Z,68.10
2018-04-16T01:48:42.204Z,68.20
2018-04-16T01:51:15.496Z,68.20
2018-04-16T01:53:49.097Z,68.20
2018-04-16T01:56:22.450Z,68.20
2018-04-16T01:58:56.673Z,68.30
2018-04-16T02:01:30.060Z,68.30
2018-04-16T02:04:04.403Z,68.40
2018-04-16T02:06:37.656Z,68.30
2018-04-16T02:09:11.894Z,68.40
2018-04-16T02:11:46.313Z,68.40
2018-04-16T02:14:21.140Z,68.20
2018-04-16T02:17:06.072Z,68.80
2018-04-16T02:19:39.500Z,67.80
2018-04-16T02:22:13.469Z,68.30
2018-04-16T02:24:47.216Z,68.20
2018-04-16T02:27:21.298Z,68.30
2018-04-16T02:29:54.496Z,68.20
2018-04-16T02:32:28.612Z,68.10
2018-04-16T02:35:02.860Z,68.10
2018-04-16T02:37:36.566Z,68.00
2018-04-16T02:40:10.510Z,68.00
2018-04-16T02:42:43.702Z,68.00
2018-04-16T02:45:17.268Z,67.90
2018-04-16T02:47:51.200Z,68.20
2018-04-16T02:50:24.416Z,68.20
2018-04-16T02:52:58.114Z,68.20
2018-04-16T02:55:31.781Z,68.30
2018-04-16T02:58:06.224Z,68.40
2018-04-16T03:00:40.008Z,68.40
2018-04-16T03:03:14.365Z,68.60
2018-04-16T03:05:57.891Z,68.60
2018-04-16T03:08:31.028Z,68.60
2018-04-16T03:11:05.218Z,68.60
2018-04-16T03:13:38.870Z,68.60
2018-04-16T03:16:12.097Z,68.80
2018-04-16T03:18:45.560Z,68.50
2018-04-16T03:21:20.212Z,69.20
2018-04-16T03:23:53.740Z,69.20
2018-04-16T03:26:27.808Z,69.20
2018-04-16T03:29:02.127Z,69.50
2018-04-16T03:31:36.301Z,69.50
2018-04-16T03:34:09.588Z,69.70
2018-04-16T03:36:42.972Z,69.90
2018-04-16T03:39:16.527Z,69.90
2018-04-16T03:41:50.748Z,70.70
2018-04-16T03:44:24.999Z,70.00
2018-04-16T03:46:58.332Z,70.00
2018-04-16T03:49:31.436Z,70.10
2018-04-16T03:52:13.954Z,70.20
2018-04-16T03:54:43.164Z,70.30
2018-04-16T03:57:11.884Z,70.20
2018-04-16T03:59:39.677Z,70.20
2018-04-16T04:02:07.568Z,70.30
2018-04-16T04:04:35.367Z,70.40
2018-04-16T04:07:04.564Z,70.60
2018-04-16T04:09:33.162Z,70.70
2018-04-16T04:12:01.716Z,70.60
2018-04-16T04:14:29.508Z,70.60
2018-04-16T04:16:57.824Z,70.60
2018-04-16T04:19:25.808Z,70.50
2018-04-16T04:21:53.877Z,70.60
2018-04-16T04:24:33.551Z,70.60
2018-04-16T04:27:13.260Z,70.50
2018-04-16T04:29:53.105Z,70.50
2018-04-16T04:32:20.944Z,70.60
2018-04-16T04:34:48.754Z,70.70
2018-04-16T04:37:16.497Z,70.80
2018-04-16T04:39:44.278Z,71.00
2018-04-16T04:42:11.889Z,70.90
2018-04-16T04:44:39.781Z,70.90
2018-04-16T04:47:07.624Z,70.90
2018-04-16T04:49:35.531Z,71.00
2018-04-16T04:52:03.868Z,70.90
2018-04-16T04:54:31.648Z,70.80
2018-04-16T04:56:59.490Z,71.00
2018-04-16T04:59:27.347Z,70.90
2018-04-16T05:01:55.158Z,70.90
2018-04-16T05:04:22.984Z,70.90
2018-04-16T05:06:50.763Z,70.80
2018-04-16T05:09:18.643Z,70.80
2018-04-16T05:11:46.456Z,70.70
2018-04-16T05:14:14.307Z,70.70
2018-04-16T05:16:41.999Z,70.70
2018-04-16T05:19:09.872Z,70.70
2018-04-16T05:21:37.746Z,70.70
2018-04-16T05:24:06.216Z,70.50
2018-04-16T05:26:34.792Z,70.50
2018-04-16T05:29:02.666Z,70.50
2018-04-16T05:31:30.224Z,70.50
2018-04-16T05:33:58.047Z,70.50
2018-04-16T05:36:26.601Z,70.50
2018-04-16T05:38:54.483Z,70.50
2018-04-16T05:41:22.322Z,70.60
2018-04-16T05:43:50.165Z,70.60
2018-04-16T05:46:18.892Z,70.70
2018-04-16T05:48:47.636Z,70.90
2018-04-16T05:51:16.231Z,70.70
2018-04-16T05:53:43.978Z,70.80
2018-04-16T05:56:12.630Z,70.60
2018-04-16T05:58:40.429Z,70.60
2018-04-16T06:01:08.097Z,70.50
2018-04-16T06:03:35.908Z,70.30
2018-04-16T06:06:03.888Z,70.20
2018-04-16T06:08:31.723Z,70.20
2018-04-16T06:11:01.129Z,70.30
2018-04-16T06:13:29.863Z,70.30
2018-04-16T06:15:57.800Z,70.20
2018-04-16T06:18:26.521Z,70.10
2018-04-16T06:20:55.068Z,70.00
2018-04-16T06:23:23.911Z,70.00
2018-04-16T06:25:51.746Z,69.90
2018-04-16T06:28:20.334Z,69.80
2018-04-16T06:30:48.783Z,69.80
2018-04-16T06:33:16.588Z,69.70
2018-04-16T06:35:45.796Z,69.50
2018-04-16T06:38:13.592Z,69.50
2018-04-16T06:40:41.416Z,69.50
2018-04-16T06:43:09.289Z,69.50
2018-04-16T06:45:37.100Z,69.40
2018-04-16T06:48:04.920Z,69.30
2018-04-16T06:50:32.704Z,69.30
2018-04-16T06:53:01.360Z,69.10
2018-04-16T06:55:29.167Z,69.10
2018-04-16T06:57:57.808Z,69.00
2018-04-16T07:00:25.401Z,68.90
2018-04-16T07:02:53.304Z,69.00
2018-04-16T07:05:22.129Z,68.60
2018-04-16T07:07:49.749Z,68.60
2018-04-16T07:10:18.500Z,68.50
2018-04-16T07:12:46.341Z,68.30
2018-04-16T07:15:14.219Z,68.20
2018-04-16T07:17:42.037Z,68.20
2018-04-16T07:20:09.859Z,68.10
2018-04-16T07:22:37.691Z,67.80
2018-04-16T07:25:06.252Z,67.50
2018-04-16T07:27:34.069Z,67.50
2018-04-16T07:30:01.945Z,67.30
2018-04-16T07:32:29.768Z,67.10
2018-04-16T07:34:57.576Z,67.00
2018-04-16T07:37:25.407Z,66.80
2018-04-16T07:39:53.201Z,66.70
2018-04-16T07:42:21.199Z,66.70
2018-04-16T07:44:49.691Z,66.50
2018-04-16T07:47:17.240Z,66.40
2018-04-16T07:49:45.792Z,66.40
2018-04-16T07:52:14.423Z,66.40
2018-04-16T07:54:43.176Z,66.30
2018-04-16T07:57:10.978Z,66.20
2018-04-16T07:59:39.557Z,65.80
2018-04-16T08:02:07.900Z,65.60
2018-04-16T08:04:35.500Z,65.60
2018-04-16T08:07:03.284Z,65.50
2018-04-16T08:09:31.832Z,65.20
2018-04-16T08:12:00.083Z,65.20
2018-04-16T08:14:27.668Z,65.30
2018-04-16T08:16:55.530Z,65.30
2018-04-16T08:19:23.210Z,65.30
2018-04-16T08:21:50.741Z,65.50
2018-04-16T08:24:18.560Z,65.50
2018-04-16T08:26:46.372Z,65.70
2018-04-16T08:29:14.667Z,65.70
2018-04-16T08:31:42.546Z,65.60
2018-04-16T08:34:10.377Z,65.40
2018-04-16T08:36:38.968Z,65.20
2018-04-16T08:39:07.479Z,65.00
2018-04-16T08:41:35.083Z,64.80
2018-04-16T08:44:02.865Z,64.60
2018-04-16T08:46:30.704Z,64.30
2018-04-16T08:48:58.264Z,62.90
2018-04-16T08:51:26.054Z,62.70
2018-04-16T08:53:53.623Z,62.70
2018-04-16T08:56:21.433Z,62.60
2018-04-16T08:58:50.068Z,62.20
2018-04-16T09:01:17.869Z,62.10
2018-04-16T09:03:46.534Z,61.90
2018-04-16T09:06:15.736Z,61.90
2018-04-16T09:08:43.590Z,61.50
2018-04-16T09:11:11.370Z,61.20
2018-04-16T09:13:39.150Z,61.00
2018-04-16T09:16:06.892Z,61.10
2018-04-16T09:18:34.700Z,61.30
2018-04-16T09:21:02.483Z,61.00
2018-04-16T09:23:30.273Z,61.10
2018-04-16T09:25:58.832Z,60.80
2018-04-16T09:28:26.620Z,60.80
2018-04-16T09:30:54.868Z,60.80
2018-04-16T09:33:22.752Z,60.60
2018-04-16T09:35:50.589Z,60.40
2018-04-16T09:38:18.404Z,60.20
2018-04-16T09:40:46.098Z,59.80
2018-04-16T09:43:14.419Z,59.70
2018-04-16T09:45:42.300Z,59.70
2018-04-16T09:48:10.120Z,59.70
2018-04-16T09:50:38.442Z,59.60
2018-04-16T09:53:06.236Z,59.50
2018-04-16T09:55:34.060Z,59.40
2018-04-16T09:58:01.699Z,59.20
2018-04-16T10:00:29.475Z,59.10
2018-04-16T10:02:58.287Z,59.10
2018-04-16T10:05:26.105Z,59.10
2018-04-16T10:07:53.924Z,59.00
2018-04-16T10:10:21.815Z,59.00
2018-04-16T10:12:49.594Z,58.80
2018-04-16T10:15:17.417Z,59.00
2018-04-16T10:17:46.008Z,59.00
2018-04-16T10:20:14.326Z,59.00
2018-04-16T10:22:42.178Z,59.00
2018-04-16T10:25:09.758Z,58.70
2018-04-16T10:27:37.600Z,58.60
2018-04-16T10:30:05.443Z,58.50
2018-04-16T10:32:33.264Z,58.50
2018-04-16T10:35:01.078Z,58.50
2018-04-16T10:37:28.820Z,58.30
2018-04-16T10:39:57.130Z,58.20
2018-04-16T10:42:24.965Z,58.20
2018-04-16T10:44:52.833Z,58.30
2018-04-16T10:47:20.681Z,58.10
2018-04-16T10:49:48.559Z,57.80
2018-04-16T10:52:16.144Z,57.60
2018-04-16T10:54:43.940Z,57.50
2018-04-16T10:57:11.751Z,57.50
2018-04-16T10:59:40.297Z,57.20
2018-04-16T11:02:08.077Z,57.10
2018-04-16T11:04:35.920Z,56.90
2018-04-16T11:07:03.717Z,56.60
2018-04-16T11:09:31.528Z,56.40
2018-04-16T11:11:59.360Z,55.90
2018-04-16T11:14:27.147Z,55.80
2018-04-16T11:16:54.717Z,55.60
2018-04-16T11:19:23.073Z,55.30
2018-04-16T11:21:50.826Z,55.30
2018-04-16T11:24:18.397Z,55.20
2018-04-16T11:26:46.185Z,55.00
2018-04-16T11:29:13.752Z,54.70
2018-04-16T11:31:41.598Z,54.80
2018-04-16T11:34:09.184Z,54.60
2018-04-16T11:36:37.052Z,54.50
2018-04-16T11:39:04.895Z,54.30
2018-04-16T11:41:32.733Z,54.30
2018-04-16T11:44:01.295Z,54.00
2018-04-16T11:46:29.878Z,53.90
2018-04-16T11:48:57.738Z,53.90
2018-04-16T11:51:25.297Z,54.00
2018-04-16T11:53:53.143Z,54.10
2018-04-16T11:56:22.204Z,54.20
2018-04-16T11:58:50.765Z,54.20
2018-04-16T12:01:18.588Z,54.20
2018-04-16T12:03:46.196Z,54.30
2018-04-16T12:06:13.752Z,54.30
2018-04-16T12:08:41.527Z,54.10
2018-04-16T12:11:09.441Z,53.90
2018-04-16T12:13:37.995Z,53.70
2018-04-16T12:16:05.815Z,53.70
2018-04-16T12:18:33.383Z,53.80
2018-04-16T12:21:02.096Z,53.90
2018-04-16T12:23:29.662Z,53.70
2018-04-16T12:25:57.480Z,53.50
2018-04-16T12:28:25.139Z,53.40
2018-04-16T12:30:53.450Z,53.30
2018-04-16T12:33:22.132Z,53.20
2018-04-16T12:35:50.607Z,53.00
2018-04-16T12:38:19.230Z,52.80
2018-04-16T12:40:47.005Z,52.80
2018-04-16T12:43:14.864Z,52.60
2018-04-16T12:45:42.784Z,52.60
2018-04-16T12:48:10.648Z,52.50
2018-04-16T12:50:38.435Z,52.40
2018-04-16T12:53:06.289Z,52.00
2018-04-16T12:55:33.844Z,51.80
2018-04-16T12:58:01.677Z,51.40
2018-04-16T13:00:29.491Z,51.00
2018-04-16T13:02:57.310Z,50.80
2018-04-16T13:05:25.894Z,50.60
2018-04-16T13:07:54.393Z,50.20
2018-04-16T13:10:22.306Z,50.20
2018-04-16T13:12:51.013Z,50.20
2018-04-16T13:15:19.500Z,49.50
2018-04-16T13:17:47.712Z,49.40
2018-04-16T13:20:16.032Z,48.80
2018-04-16T13:22:43.905Z,48.60
2018-04-16T13:25:12.500Z,48.70
2018-04-16T13:27:40.323Z,48.30
2018-04-16T13:30:08.660Z,47.50
2018-04-16T13:32:36.951Z,47.50
2018-04-16T13:35:04.960Z,46.70
2018-04-16T13:37:33.324Z,45.60
2018-04-16T13:40:01.928Z,45.10
2018-04-16T13:42:30.617Z,44.90
2018-04-16T13:44:59.335Z,44.40
2018-04-16T13:47:27.277Z,44.40
2018-04-16T13:49:55.160Z,43.70
2018-04-16T13:52:23.488Z,41.80
2018-04-16T13:54:51.378Z,41.70
2018-04-16T13:57:19.161Z,41.20
2018-04-16T13:59:47.021Z,41.00
2018-04-16T14:02:15.312Z,40.80
2018-04-16T14:04:43.180Z,40.10
2018-04-16T14:07:10.991Z,39.60
2018-04-16T14:09:38.804Z,39.10
2018-04-16T14:12:06.685Z,38.70
2018-04-16T14:14:34.436Z,38.10
2018-04-16T14:17:02.300Z,37.60
2018-04-16T14:19:30.180Z,37.20
2018-04-16T14:21:58.064Z,37.10
2018-04-16T14:24:25.694Z,37.30
2018-04-16T14:26:53.584Z,37.10
2018-04-16T14:29:21.157Z,36.70
2018-04-16T14:31:49.004Z,36.40
2018-04-16T14:34:18.088Z,36.50
2018-04-16T14:36:46.699Z,36.30
2018-04-16T14:39:14.572Z,36.20
2018-04-16T14:41:42.145Z,36.30
2018-04-16T14:44:09.958Z,36.40
2018-04-16T14:46:37.808Z,36.20
2018-04-16T14:49:05.624Z,35.60
2018-04-16T14:51:34.063Z,36.40
2018-04-16T14:54:01.901Z,36.40
2018-04-16T14:56:29.444Z,36.20
2018-04-16T14:58:58.775Z,36.10
2018-04-16T15:01:27.178Z,36.00
2018-04-16T15:03:54.736Z,36.30
2018-04-16T15:06:23.464Z,36.60
2018-04-16T15:08:51.300Z,36.70
2018-04-16T15:11:19.703Z,36.80
2018-04-16T15:13:47.491Z,36.50
2018-04-16T15:16:15.851Z,36.30
2018-04-16T15:18:44.508Z,36.40
2018-04-16T15:21:12.320Z,36.30
2018-04-16T15:23:40.932Z,36.40
2018-04-16T15:26:09.548Z,36.20
2018-04-16T15:28:38.285Z,36.10
2018-04-16T15:31:06.942Z,36.00
2018-04-16T15:33:34.535Z,36.20
2018-04-16T15:36:02.141Z,36.10
2018-04-16T15:38:30.478Z,36.10
2018-04-16T15:40:58.688Z,36.00
2018-04-16T15:43:26.237Z,35.90
2018-04-16T15:45:54.144Z,36.00
2018-04-16T15:48:23.645Z,35.80
2018-04-16T15:50:52.766Z,35.80
2018-04-16T15:53:20.580Z,35.80
2018-04-16T15:55:48.433Z,36.00
2018-04-16T15:58:16.211Z,36.10
2018-04-16T16:00:44.345Z,36.20
2018-04-16T16:03:11.909Z,36.20
2018-04-16T16:05:40.228Z,36.50
2018-04-16T16:08:08.662Z,36.50
2018-04-16T16:10:36.973Z,36.10
2018-04-16T16:13:04.826Z,36.00
2018-04-16T16:15:33.544Z,35.50
2018-04-16T16:18:01.579Z,35.40
2018-04-16T16:20:30.152Z,35.00
2018-04-16T16:22:57.812Z,35.00
2018-04-16T16:25:25.608Z,34.80
2018-04-16T16:27:54.188Z,34.70
2018-04-16T16:30:21.800Z,34.70
2018-04-16T16:32:49.507Z,34.70
2018-04-16T16:35:17.053Z,34.60
2018-04-16T16:37:44.732Z,34.50
2018-04-16T16:40:12.421Z,34.50
2018-04-16T16:42:41.000Z,34.50
2018-04-16T16:45:08.830Z,34.40
2018-04-16T16:47:36.756Z,34.60
2018-04-16T16:50:05.552Z,34.90
2018-04-16T16:52:34.379Z,35.20
2018-04-16T16:55:02.219Z,35.10
2018-04-16T16:57:30.909Z,35.40
2018-04-16T16:59:59.364Z,35.60
2018-04-16T17:02:27.292Z,35.50
2018-04-16T17:04:54.840Z,35.70
2018-04-16T17:07:24.270Z,35.80
2018-04-16T17:09:52.108Z,35.70
2018-04-16T17:12:20.696Z,35.80
2018-04-16T17:14:49.313Z,35.90
2018-04-16T17:17:16.860Z,35.90
2018-04-16T17:19:45.474Z,36.10
2018-04-16T17:22:13.071Z,36.10
2018-04-16T17:24:41.652Z,36.20
2018-04-16T17:27:09.211Z,36.30
2018-04-16T17:29:36.811Z,36.50
2018-04-16T17:32:04.359Z,36.50
2018-04-16T17:34:32.147Z,36.70
2018-04-16T17:36:59.980Z,36.80
2018-04-16T17:39:28.408Z,37.00
2018-04-16T17:41:56.726Z,37.40
2018-04-16T17:44:24.287Z,37.30
2018-04-16T17:46:51.842Z,37.50
2018-04-16T17:49:19.628Z,37.70
2018-04-16T17:51:47.483Z,37.90
2018-04-16T17:54:15.356Z,37.90
2018-04-16T17:56:42.931Z,37.80
2018-04-16T17:59:10.816Z,38.20
2018-04-16T18:01:38.628Z,38.60
2018-04-16T18:04:06.700Z,38.60
2018-04-16T18:06:34.491Z,38.60
2018-04-16T18:09:02.432Z,38.90
2018-04-16T18:11:30.222Z,38.90
2018-04-16T18:13:58.064Z,38.70
2018-04-16T18:16:25.996Z,38.80
2018-04-16T18:18:54.720Z,39.10
2018-04-16T18:21:22.589Z,39.20
2018-04-16T18:23:50.367Z,39.30
2018-04-16T18:26:17.948Z,39.50
2018-04-16T18:28:45.852Z,39.50
2018-04-16T18:31:14.549Z,39.40
2018-04-16T18:33:42.961Z,39.50
2018-04-16T18:36:11.200Z,39.50
2018-04-16T18:38:39.926Z,39.60
2018-04-16T18:41:07.480Z,39.50
2018-04-16T18:43:35.362Z,39.60
2018-04-16T18:46:02.929Z,39.90
2018-04-16T18:48:30.761Z,40.10
2018-04-16T18:50:59.387Z,40.30
2018-04-16T18:53:27.222Z,40.30
2018-04-16T18:55:55.599Z,40.60
2018-04-16T18:58:24.196Z,40.90
2018-04-16T19:00:52.649Z,41.00
2018-04-16T19:03:20.485Z,41.00
2018-04-16T19:05:48.318Z,41.20
2018-04-16T19:08:16.807Z,41.90
2018-04-16T19:10:45.264Z,41.30
2018-04-16T19:13:13.110Z,41.30
2018-04-16T19:15:40.939Z,41.20
2018-04-16T19:18:09.421Z,41.40
2018-04-16T19:20:43.024Z,41.40
2018-04-16T19:23:11.757Z,42.20
2018-04-16T19:25:39.722Z,42.20
2018-04-16T19:28:13.048Z,42.50
2018-04-16T19:30:41.710Z,44.00
2018-04-16T19:33:15.243Z,44.00
2018-04-16T19:35:43.182Z,44.40
2018-04-16T19:38:11.017Z,44.60
2018-04-16T19:40:39.800Z,45.20
2018-04-16T19:43:08.165Z,46.00
2018-04-16T19:45:35.925Z,45.50
2018-04-16T19:48:03.659Z,45.80
2018-04-16T19:50:31.538Z,46.40
2018-04-16T19:52:59.512Z,47.30
2018-04-16T19:55:27.196Z,48.20
2018-04-16T19:58:00.792Z,48.90
2018-04-16T20:00:28.736Z,49.60
2018-04-16T20:03:02.109Z,50.40
2018-04-16T20:05:29.748Z,51.20
2018-04-16T20:07:57.299Z,51.80
2018-04-16T20:10:25.189Z,52.30
2018-04-16T20:12:52.988Z,52.80
2018-04-16T20:15:21.683Z,53.50
2018-04-16T20:17:50.310Z,53.50
2018-04-16T20:20:17.929Z,53.50
2018-04-16T20:22:46.270Z,53.80
2018-04-16T20:25:13.884Z,53.80
2018-04-16T20:27:42.736Z,54.20
2018-04-16T20:30:10.280Z,54.20
2018-04-16T20:32:38.204Z,54.20
2018-04-16T20:35:05.729Z,54.30
2018-04-16T20:37:33.757Z,54.40
2018-04-16T20:40:03.320Z,54.70
2018-04-16T20:42:30.999Z,54.60
2018-04-16T20:44:59.655Z,54.80
2018-04-16T20:47:27.595Z,54.80
2018-04-16T20:49:56.091Z,54.90
2018-04-16T20:52:24.404Z,55.00
2018-04-16T20:54:52.092Z,55.00
2018-04-16T20:57:19.698Z,55.10
2018-04-16T20:59:48.385Z,55.40
2018-04-16T21:02:16.957Z,56.00
2018-04-16T21:04:45.668Z,55.60
2018-04-16T21:07:14.389Z,55.70
2018-04-16T21:09:42.294Z,55.60
2018-04-16T21:12:10.233Z,55.60
2018-04-16T21:14:37.925Z,55.70
2018-04-16T21:17:05.464Z,55.60
2018-04-16T21:19:33.302Z,56.00
2018-04-16T21:22:01.900Z,56.20
2018-04-16T21:24:29.660Z,56.20
2018-04-16T21:26:58.230Z,56.30
2018-04-16T21:29:26.054Z,56.30
2018-04-16T21:31:53.851Z,55.90
2018-04-16T21:34:21.699Z,56.30
2018-04-16T21:36:49.468Z,56.30
2018-04-16T21:39:17.331Z,56.50
2018-04-16T21:41:44.862Z,56.80
2018-04-16T21:44:13.385Z,57.50
2018-04-16T21:46:41.874Z,57.00
2018-04-16T21:49:09.663Z,57.10
2018-04-16T21:51:37.430Z,57.00
2018-04-16T21:54:06.085Z,57.00
2018-04-16T21:56:36.046Z,57.10
2018-04-16T21:59:03.633Z,57.00
2018-04-16T22:01:32.361Z,57.30
2018-04-16T22:04:00.203Z,57.30
2018-04-16T22:06:27.964Z,57.30
2018-04-16T22:08:57.319Z,57.50
2018-04-16T22:11:25.150Z,57.50
2018-04-16T22:13:52.868Z,57.50
2018-04-16T22:16:20.400Z,58.20
2018-04-16T22:18:49.004Z,57.80
2018-04-16T22:21:16.938Z,57.80
2018-04-16T22:23:46.250Z,58.10
2018-04-16T22:26:14.124Z,58.00
2018-04-16T22:28:42.637Z,58.20
2018-04-16T22:31:10.682Z,58.30
2018-04-16T22:33:38.442Z,58.50
2018-04-16T22:36:06.805Z,58.90
2018-04-16T22:38:34.810Z,58.90
2018-04-16T22:41:02.363Z,58.90
2018-04-16T22:43:30.354Z,59.50
2018-04-16T22:45:58.946Z,59.10
2018-04-16T22:48:27.265Z,59.20
2018-04-16T22:50:54.847Z,59.20
2018-04-16T22:53:23.823Z,59.20
2018-04-16T22:55:51.773Z,59.30
2018-04-16T22:58:20.089Z,59.30
2018-04-16T23:00:48.802Z,59.30
2018-04-16T23:03:17.421Z,59.40
2018-04-16T23:05:45.331Z,59.40
2018-04-16T23:08:13.147Z,59.40
2018-04-16T23:10:40.966Z,60.00
2018-04-16T23:13:08.791Z,59.40
2018-04-16T23:15:38.320Z,59.60
2018-04-16T23:18:06.121Z,59.60
2018-04-16T23:20:33.939Z,59.60
2018-04-16T23:23:03.288Z,59.70
2018-04-16T23:25:31.112Z,59.70
2018-04-16T23:27:58.888Z,59.80
2018-04-16T23:30:27.516Z,60.10
2018-04-16T23:32:55.359Z,60.10
2018-04-16T23:35:23.668Z,60.50
2018-04-16T23:37:51.453Z,60.20
2018-04-16T23:40:19.006Z,60.20
2018-04-16T23:42:46.786Z,60.20
2018-04-16T23:45:15.169Z,60.30
2018-04-16T23:47:42.728Z,60.40
2018-04-16T23:50:10.568Z,60.40
2018-04-16T23:52:39.403Z,60.40
2018-04-16T23:55:06.958Z,60.40
2018-04-16T23:57:35.512Z,60.60
